Austin, Utah
Current Conditions -  °F | °C
As of 4:52 AM on Sunday 28 Dec 2014 (Local Time) from KMLF Reporting Station
Overcast Overcast  
Wind Chill:   Ceiling: 9500
Heat Index: 21°   Visibility: 10mi
Dew Point: 12°   Wind: 21mph
Humidity: 68%   Direction: 210°SSW
Pressure: 30.14"   Gusts: NA
Location:  38.6125°N, 112.081°W
Report Text: KMLF 281152Z AUTO 21018KT 10SM OVC095 M06/M11 A3014 RMK AO2 SLP246 I6000 T10611111 11056 21183 58015 TSNO $
Loading
Personal Weather Stations






























Interactive Weather Map New forecast layout! Learn more

10-Day Weather Forecast

Advertisements
Track Severe Weather on mobile